Terminal Aerodrome Forecast
Issued by NWS Missoula, MT

Home | Current Version | Previous Version | Text Only | Print | Product List | Glossary On
Versions: 1 2 3 4 5 6 7 8 9 10 11 12 13 14 15 16 17 18 19 20
000
FTUS45 KMSO 260539
TAFGPI
TAF
KGPI 260539Z 2606/2706 VRB03KT 6SM -SN BR BKN035 OVC040
      TEMPO 2608/2610 4SM -SN BR BKN022
     FM261800 VRB03KT P6SM BKN040=

USA.gov is the U.S. government's official web portal to all federal, state and local government web resources and services.